Time;durP1;ratioP1;P1;durP2;ratioP2;P2;SDS_P1;SDS_P2;PMS_P1;PMS_P2;Temp;Humidity;BMP_temperature;BMP_pressure;BME280_temperature;BME280_humidity;BME280_pressure;Samples;Min_cycle;Max_cycle;Signal;HPM_P1;HPM_P2
2022/12/02 00:00:25;;;;;;;26.30;12.20;;;;;;;;;;103493;1306;25494;-75
2022/12/02 00:03:15;;;;;;;22.50;11.40;;;;;;;;;;103387;1306;25320;-78
2022/12/02 00:05:42;;;;;;;22.40;10.80;;;;;;;;;;103355;1306;25274;-78
2022/12/02 00:08:18;;;;;;;22.00;11.30;;;;;;;;;;103302;1306;22723;-81
2022/12/02 00:10:46;;;;;;;20.30;10.40;;;;;;;;;;103335;1309;25265;-77
2022/12/02 00:13:12;;;;;;;20.20;9.80;;;;;;;;;;103238;1309;22538;-78
2022/12/02 00:15:41;;;;;;;20.00;9.10;;;;;;;;;;103476;1301;22726;-82
2022/12/02 00:18:12;;;;;;;22.20;10.00;;;;;;;;;;103439;1301;22462;-80
2022/12/02 00:20:40;;;;;;;21.80;9.50;;;;;;;;;;103362;1307;22639;-81
2022/12/02 00:23:07;;;;;;;21.10;10.60;;;;;;;;;;103437;1306;25326;-79
2022/12/02 00:25:33;;;;;;;20.50;10.30;;;;;;;;;;103460;1306;22496;-77
2022/12/02 00:28:01;;;;;;;23.80;9.70;;;;;;;;;;103371;1302;22854;-80
2022/12/02 00:30:28;;;;;;;20.90;9.90;;;;;;;;;;103416;1302;24178;-76
2022/12/02 00:32:54;;;;;;;20.40;10.10;;;;;;;;;;103238;1306;24280;-76
2022/12/02 00:35:23;;;;;;;20.10;10.00;;;;;;;;;;103019;1305;22612;-78
2022/12/02 00:37:50;;;;;;;19.50;9.20;;;;;;;;;;103174;1294;24467;-80
2022/12/02 00:40:17;;;;;;;19.10;9.40;;;;;;;;;;103111;1307;22479;-78
2022/12/02 00:42:44;;;;;;;19.00;9.00;;;;;;;;;;103383;1306;23780;-79
2022/12/02 00:47:57;;;;;;;20.30;9.70;;;;;;;;;;103528;1307;22480;-78
2022/12/02 00:50:24;;;;;;;20.40;10.00;;;;;;;;;;103246;1306;22599;-77
2022/12/02 00:52:51;;;;;;;22.10;10.00;;;;;;;;;;103434;1306;22508;-82
2022/12/02 00:55:17;;;;;;;18.10;8.80;;;;;;;;;;103333;1306;25358;-79
2022/12/02 00:57:44;;;;;;;16.30;8.40;;;;;;;;;;103233;1305;22899;-79
2022/12/02 01:00:12;;;;;;;19.20;9.50;;;;;;;;;;103416;1307;22466;-81
2022/12/02 01:02:39;;;;;;;18.10;8.70;;;;;;;;;;103396;1307;22555;-78
2022/12/02 01:05:08;;;;;;;20.00;9.10;;;;;;;;;;103605;1291;25376;-78
2022/12/02 01:07:35;;;;;;;19.50;9.10;;;;;;;;;;103523;1306;24389;-76
2022/12/02 01:10:03;;;;;;;20.20;8.90;;;;;;;;;;106982;1300;22171;-74
2022/12/02 01:12:29;;;;;;;18.50;8.70;;;;;;;;;;106719;1294;22219;-74
2022/12/02 01:14:56;;;;;;;16.80;8.30;;;;;;;;;;106869;1305;22234;-74
2022/12/02 01:17:23;;;;;;;19.10;8.30;;;;;;;;;;106930;1306;22127;-75
2022/12/02 01:19:49;;;;;;;17.00;8.20;;;;;;;;;;106756;1307;21948;-75
2022/12/02 01:22:16;;;;;;;18.90;8.20;;;;;;;;;;107127;1300;22061;-75
2022/12/02 01:24:43;;;;;;;19.00;8.70;;;;;;;;;;106937;1293;22113;-75
2022/12/02 01:27:10;;;;;;;19.50;9.60;;;;;;;;;;106862;1307;22771;-74
2022/12/02 01:29:37;;;;;;;17.90;8.20;;;;;;;;;;106709;1306;22207;-75
2022/12/02 01:32:04;;;;;;;17.70;7.70;;;;;;;;;;106721;1307;22052;-74
2022/12/02 01:34:31;;;;;;;16.90;7.70;;;;;;;;;;106799;1302;22096;-75
2022/12/02 01:36:58;;;;;;;18.40;8.50;;;;;;;;;;106726;1300;22060;-74
2022/12/02 01:39:24;;;;;;;17.10;8.00;;;;;;;;;;106941;1306;22773;-74
2022/12/02 01:41:51;;;;;;;16.90;8.10;;;;;;;;;;106867;1307;22689;-75
2022/12/02 01:44:18;;;;;;;20.40;9.60;;;;;;;;;;106972;1307;22080;-75
2022/12/02 01:46:44;;;;;;;17.30;8.40;;;;;;;;;;106987;1305;22709;-74
2022/12/02 01:49:11;;;;;;;19.20;8.90;;;;;;;;;;106836;1307;22736;-75
2022/12/02 01:51:38;;;;;;;18.10;9.20;;;;;;;;;;106779;1306;22809;-74
2022/12/02 01:54:05;;;;;;;17.40;8.80;;;;;;;;;;106696;1306;22783;-74
2022/12/02 01:56:31;;;;;;;17.20;8.00;;;;;;;;;;106764;1307;22093;-74
2022/12/02 01:58:58;;;;;;;18.50;8.80;;;;;;;;;;106745;1307;22763;-74
2022/12/02 02:01:26;;;;;;;19.90;9.10;;;;;;;;;;106855;1307;22094;-74
2022/12/02 02:03:53;;;;;;;17.70;9.60;;;;;;;;;;106854;1307;22031;-74
2022/12/02 02:06:19;;;;;;;18.20;8.60;;;;;;;;;;106987;1305;22050;-74
2022/12/02 02:08:46;;;;;;;17.00;8.60;;;;;;;;;;106842;1307;21953;-74
2022/12/02 02:11:13;;;;;;;16.00;8.50;;;;;;;;;;106771;1306;21960;-74
2022/12/02 02:13:40;;;;;;;17.90;8.60;;;;;;;;;;106805;1306;22081;-74
2022/12/02 02:16:07;;;;;;;17.20;8.40;;;;;;;;;;106730;1307;22748;-74
2022/12/02 02:18:34;;;;;;;17.00;7.50;;;;;;;;;;106721;1306;22079;-75
2022/12/02 02:21:01;;;;;;;17.20;8.40;;;;;;;;;;106650;1307;22088;-76
2022/12/02 02:23:28;;;;;;;15.90;7.80;;;;;;;;;;106783;1307;22082;-74
2022/12/02 02:25:56;;;;;;;16.40;8.00;;;;;;;;;;106778;1307;22027;-74
2022/12/02 02:28:26;;;;;;;16.90;8.40;;;;;;;;;;106722;1307;22061;-74
2022/12/02 02:30:54;;;;;;;19.30;9.50;;;;;;;;;;106759;1306;21964;-74
2022/12/02 02:33:22;;;;;;;17.70;8.50;;;;;;;;;;106728;1306;22048;-74
2022/12/02 02:35:49;;;;;;;17.30;8.70;;;;;;;;;;106726;1306;22034;-74
2022/12/02 02:38:19;;;;;;;19.80;10.00;;;;;;;;;;106754;1306;22050;-75
2022/12/02 02:40:46;;;;;;;18.70;9.40;;;;;;;;;;106744;1306;21701;-74
2022/12/02 02:43:13;;;;;;;19.80;8.60;;;;;;;;;;106777;1306;22082;-74
2022/12/02 02:45:41;;;;;;;19.60;9.00;;;;;;;;;;107032;1294;22128;-75
2022/12/02 02:48:09;;;;;;;18.00;8.50;;;;;;;;;;106781;1306;22685;-74
2022/12/02 02:50:37;;;;;;;19.10;8.90;;;;;;;;;;106794;1307;22798;-74
2022/12/02 02:53:05;;;;;;;18.60;9.40;;;;;;;;;;106734;1303;22060;-74
2022/12/02 02:55:33;;;;;;;19.70;9.40;;;;;;;;;;106737;1306;22056;-74
2022/12/02 02:58:15;;;;;;;21.60;10.40;;;;;;;;;;106733;1307;22655;-74
2022/12/02 03:00:48;;;;;;;20.20;9.90;;;;;;;;;;106888;1306;22046;-74
2022/12/02 03:03:17;;;;;;;18.00;8.80;;;;;;;;;;106845;1301;21956;-74
2022/12/02 03:05:44;;;;;;;19.40;9.40;;;;;;;;;;106757;1306;22841;-74
2022/12/02 03:08:12;;;;;;;21.90;10.10;;;;;;;;;;106860;1301;22708;-74
2022/12/02 03:10:39;;;;;;;20.90;10.10;;;;;;;;;;107177;1297;22302;-75
2022/12/02 03:13:06;;;;;;;20.70;10.10;;;;;;;;;;106917;1306;22106;-75
2022/12/02 03:15:32;;;;;;;21.00;9.90;;;;;;;;;;106699;1309;22056;-75
2022/12/02 03:17:59;;;;;;;21.00;10.40;;;;;;;;;;106710;1309;22798;-74
2022/12/02 03:20:26;;;;;;;21.30;10.40;;;;;;;;;;106836;1305;23047;-75
2022/12/02 03:22:53;;;;;;;19.00;9.50;;;;;;;;;;106639;1303;22074;-74
2022/12/02 03:25:19;;;;;;;19.90;10.20;;;;;;;;;;106882;1291;22029;-74
2022/12/02 03:27:46;;;;;;;24.40;11.10;;;;;;;;;;106754;1308;21968;-74
2022/12/02 03:30:13;;;;;;;19.80;9.80;;;;;;;;;;106769;1308;22078;-76
2022/12/02 03:32:39;;;;;;;19.30;9.90;;;;;;;;;;106675;1309;22160;-74
2022/12/02 03:35:07;;;;;;;20.30;10.20;;;;;;;;;;106707;1309;22101;-74
2022/12/02 03:37:34;;;;;;;20.10;9.60;;;;;;;;;;106709;1309;22100;-74
2022/12/02 03:40:01;;;;;;;21.20;11.10;;;;;;;;;;106844;1307;22037;-74
2022/12/02 03:42:27;;;;;;;22.80;10.90;;;;;;;;;;106856;1292;22096;-74
2022/12/02 03:44:54;;;;;;;22.30;11.00;;;;;;;;;;106761;1308;22108;-73
2022/12/02 03:47:21;;;;;;;21.30;10.00;;;;;;;;;;106766;1308;22690;-74
2022/12/02 03:49:47;;;;;;;19.10;9.80;;;;;;;;;;107116;1299;22042;-73
2022/12/02 03:52:14;;;;;;;21.80;10.70;;;;;;;;;;106760;1309;21919;-74
2022/12/02 03:54:41;;;;;;;21.90;10.40;;;;;;;;;;106751;1310;22057;-74
2022/12/02 03:57:08;;;;;;;18.40;9.10;;;;;;;;;;106883;1308;22104;-74
2022/12/02 03:59:34;;;;;;;20.90;9.60;;;;;;;;;;107131;1293;22695;-73
2022/12/02 04:02:01;;;;;;;19.70;10.10;;;;;;;;;;107130;1286;22056;-74
2022/12/02 04:04:28;;;;;;;20.40;10.40;;;;;;;;;;106785;1309;22063;-74
2022/12/02 04:06:54;;;;;;;23.10;10.60;;;;;;;;;;106768;1305;22723;-74
2022/12/02 04:09:21;;;;;;;24.00;11.70;;;;;;;;;;106869;1309;22114;-74
2022/12/02 04:11:48;;;;;;;21.50;10.00;;;;;;;;;;106736;1306;22082;-74
2022/12/02 04:14:14;;;;;;;20.20;9.50;;;;;;;;;;106770;1302;22795;-74
2022/12/02 04:16:41;;;;;;;22.20;10.70;;;;;;;;;;106743;1309;22545;-74
2022/12/02 04:19:07;;;;;;;24.20;10.60;;;;;;;;;;106697;1298;21709;-74
2022/12/02 04:21:34;;;;;;;21.70;10.70;;;;;;;;;;106961;1288;22072;-74
2022/12/02 04:24:01;;;;;;;21.10;10.10;;;;;;;;;;106844;1307;22093;-74
2022/12/02 04:26:27;;;;;;;21.20;10.30;;;;;;;;;;106849;1302;22072;-74
2022/12/02 04:28:54;;;;;;;22.60;10.70;;;;;;;;;;106901;1307;22072;-74
2022/12/02 04:31:21;;;;;;;19.80;10.20;;;;;;;;;;106911;1307;22516;-74
2022/12/02 04:33:47;;;;;;;23.50;10.70;;;;;;;;;;106855;1308;22802;-74
2022/12/02 04:36:14;;;;;;;25.20;11.50;;;;;;;;;;106658;1312;22819;-75
2022/12/02 04:38:41;;;;;;;25.40;11.40;;;;;;;;;;106714;1306;22067;-74
2022/12/02 04:41:07;;;;;;;26.30;12.00;;;;;;;;;;106851;1310;21975;-74
2022/12/02 04:43:34;;;;;;;25.50;11.60;;;;;;;;;;106864;1307;22051;-74
2022/12/02 04:46:01;;;;;;;21.90;10.70;;;;;;;;;;106920;1307;22112;-74
2022/12/02 04:48:27;;;;;;;24.10;11.60;;;;;;;;;;106926;1307;22719;-74
2022/12/02 04:50:54;;;;;;;22.10;10.80;;;;;;;;;;106917;1300;22087;-74
2022/12/02 04:53:21;;;;;;;22.00;10.60;;;;;;;;;;107117;1298;22065;-74
2022/12/02 04:55:47;;;;;;;25.40;12.00;;;;;;;;;;106914;1307;22245;-74
2022/12/02 04:58:14;;;;;;;25.40;11.60;;;;;;;;;;106882;1307;22070;-75
2022/12/02 05:00:41;;;;;;;26.30;11.40;;;;;;;;;;107008;1299;22094;-74
2022/12/02 05:03:08;;;;;;;27.60;12.90;;;;;;;;;;107098;1300;22077;-74
2022/12/02 05:05:34;;;;;;;27.50;12.60;;;;;;;;;;106862;1308;21950;-74
2022/12/02 05:08:01;;;;;;;28.40;12.90;;;;;;;;;;106877;1309;22052;-73
2022/12/02 05:10:27;;;;;;;23.90;11.50;;;;;;;;;;106660;1310;22746;-74
2022/12/02 05:12:55;;;;;;;26.60;12.30;;;;;;;;;;106841;1296;22111;-74
2022/12/02 05:15:22;;;;;;;26.70;11.40;;;;;;;;;;106705;1310;22076;-74
2022/12/02 05:17:49;;;;;;;24.90;11.80;;;;;;;;;;106871;1310;22077;-74
2022/12/02 05:20:16;;;;;;;29.40;13.70;;;;;;;;;;106890;1308;22059;-74
2022/12/02 05:22:43;;;;;;;25.20;12.00;;;;;;;;;;106862;1310;21926;-74
2022/12/02 05:25:11;;;;;;;28.90;13.30;;;;;;;;;;106635;1310;22660;-74
2022/12/02 05:27:38;;;;;;;27.60;12.90;;;;;;;;;;106654;1312;22080;-74
2022/12/02 05:30:06;;;;;;;26.40;12.10;;;;;;;;;;106665;1310;21976;-74
2022/12/02 05:32:33;;;;;;;24.40;11.30;;;;;;;;;;106633;1313;22673;-74
2022/12/02 05:34:59;;;;;;;24.10;11.30;;;;;;;;;;106948;1294;22713;-74
2022/12/02 05:37:26;;;;;;;25.20;11.20;;;;;;;;;;106661;1303;22156;-74
2022/12/02 05:39:53;;;;;;;23.40;10.90;;;;;;;;;;106718;1310;22096;-74
2022/12/02 05:42:20;;;;;;;27.00;11.90;;;;;;;;;;106872;1309;22682;-74
2022/12/02 05:44:47;;;;;;;25.10;10.30;;;;;;;;;;106618;1309;22063;-74
2022/12/02 05:47:15;;;;;;;24.80;11.30;;;;;;;;;;106747;1309;22114;-73
2022/12/02 05:49:42;;;;;;;26.80;10.90;;;;;;;;;;106630;1310;22083;-74
2022/12/02 05:52:28;;;;;;;24.60;11.20;;;;;;;;;;106629;1310;22073;-73
2022/12/02 05:54:57;;;;;;;26.80;11.30;;;;;;;;;;106689;1308;21962;-74
2022/12/02 05:57:26;;;;;;;24.20;9.90;;;;;;;;;;106687;1309;22119;-74
2022/12/02 06:00:00;;;;;;;24.40;11.00;;;;;;;;;;106872;1311;22148;-74
2022/12/02 06:02:30;;;;;;;25.70;10.50;;;;;;;;;;106732;1308;22523;-73
2022/12/02 06:04:58;;;;;;;22.70;11.00;;;;;;;;;;106659;1310;22042;-74
2022/12/02 06:07:24;;;;;;;24.40;10.80;;;;;;;;;;106618;1303;22069;-74
2022/12/02 06:09:54;;;;;;;24.70;11.50;;;;;;;;;;106602;1310;22083;-74
2022/12/02 06:12:21;;;;;;;25.50;11.20;;;;;;;;;;106634;1312;22798;-74
2022/12/02 06:14:52;;;;;;;25.90;12.90;;;;;;;;;;106809;1303;22021;-74
2022/12/02 06:17:20;;;;;;;28.20;12.60;;;;;;;;;;107107;1298;22245;-74
2022/12/02 06:19:55;;;;;;;28.90;13.30;;;;;;;;;;106701;1310;21930;-74
2022/12/02 06:22:27;;;;;;;29.70;12.20;;;;;;;;;;106629;1310;21714;-74
2022/12/02 06:24:54;;;;;;;30.50;12.50;;;;;;;;;;106632;1313;22059;-73
2022/12/02 06:27:22;;;;;;;32.00;14.10;;;;;;;;;;106708;1302;22692;-74
2022/12/02 06:29:51;;;;;;;28.60;12.80;;;;;;;;;;106724;1314;22098;-74
2022/12/02 06:32:20;;;;;;;29.60;13.10;;;;;;;;;;106625;1312;22049;-74
2022/12/02 06:34:49;;;;;;;27.00;12.40;;;;;;;;;;106591;1308;22056;-74
2022/12/02 06:37:24;;;;;;;25.90;12.10;;;;;;;;;;106636;1311;22139;-74
2022/12/02 06:39:54;;;;;;;27.30;11.50;;;;;;;;;;106710;1312;22192;-74
2022/12/02 06:42:27;;;;;;;27.10;11.90;;;;;;;;;;106675;1308;21955;-74
2022/12/02 06:45:05;;;;;;;28.80;13.10;;;;;;;;;;106620;1310;22124;-74
2022/12/02 06:47:35;;;;;;;25.60;11.20;;;;;;;;;;106585;1310;22536;-74
2022/12/02 06:50:03;;;;;;;31.40;13.00;;;;;;;;;;106713;1310;22541;-73
2022/12/02 06:52:35;;;;;;;32.40;14.00;;;;;;;;;;106720;1309;22751;-74
2022/12/02 06:55:06;;;;;;;31.40;13.40;;;;;;;;;;106641;1309;22166;-74
2022/12/02 06:57:34;;;;;;;29.50;12.90;;;;;;;;;;106845;1309;22128;-73
2022/12/02 07:00:03;;;;;;;29.30;13.40;;;;;;;;;;106691;1309;22081;-74
2022/12/02 07:02:31;;;;;;;29.20;12.90;;;;;;;;;;107101;1300;21959;-73
2022/12/02 07:04:59;;;;;;;30.60;14.10;;;;;;;;;;106798;1309;22281;-74
2022/12/02 07:07:28;;;;;;;34.90;14.20;;;;;;;;;;106588;1310;22074;-74
2022/12/02 07:09:57;;;;;;;30.90;13.20;;;;;;;;;;106620;1310;21936;-74
2022/12/02 07:12:41;;;;;;;30.30;13.80;;;;;;;;;;106728;1309;22134;-74
2022/12/02 07:15:16;;;;;;;34.50;14.80;;;;;;;;;;106704;1310;22339;-74
2022/12/02 07:17:44;;;;;;;31.80;13.70;;;;;;;;;;106780;1290;22861;-73
2022/12/02 07:20:43;;;;;;;32.60;12.80;;;;;;;;;;106614;1310;22034;-73
2022/12/02 07:23:20;;;;;;;28.70;11.80;;;;;;;;;;106657;1310;22798;-73
2022/12/02 07:25:54;;;;;;;29.10;11.90;;;;;;;;;;106562;1310;22038;-74
2022/12/02 07:28:25;;;;;;;30.40;12.00;;;;;;;;;;106628;1310;22111;-74
2022/12/02 07:30:59;;;;;;;29.70;12.60;;;;;;;;;;106540;1310;22101;-74
2022/12/02 07:33:29;;;;;;;28.10;12.80;;;;;;;;;;106527;1310;22538;-74
2022/12/02 07:35:57;;;;;;;31.80;14.70;;;;;;;;;;106629;1310;22081;-74
2022/12/02 07:38:27;;;;;;;41.80;18.60;;;;;;;;;;106757;1310;21702;-74
2022/12/02 07:40:56;;;;;;;33.10;15.10;;;;;;;;;;106654;1310;22773;-74
2022/12/02 07:43:26;;;;;;;52.90;24.90;;;;;;;;;;106703;1310;22080;-73
2022/12/02 07:45:55;;;;;;;34.70;17.20;;;;;;;;;;106624;1310;22057;-73
2022/12/02 07:48:25;;;;;;;24.80;11.50;;;;;;;;;;106577;1310;22095;-73
2022/12/02 07:50:54;;;;;;;28.80;12.70;;;;;;;;;;106638;1310;22785;-74
2022/12/02 07:53:23;;;;;;;26.20;11.40;;;;;;;;;;106670;1305;22581;-74
2022/12/02 07:55:52;;;;;;;29.40;12.90;;;;;;;;;;106647;1300;22653;-74
2022/12/02 07:58:21;;;;;;;28.20;12.60;;;;;;;;;;106615;1310;22220;-74
2022/12/02 08:00:50;;;;;;;26.10;11.10;;;;;;;;;;106683;1310;21978;-74
2022/12/02 08:03:19;;;;;;;26.20;11.70;;;;;;;;;;106673;1304;22025;-73
2022/12/02 08:05:48;;;;;;;28.20;11.10;;;;;;;;;;106855;1308;22051;-74
2022/12/02 08:08:17;;;;;;;28.20;11.90;;;;;;;;;;106569;1310;22562;-73
2022/12/02 08:10:47;;;;;;;31.40;13.60;;;;;;;;;;106620;1310;22657;-73
2022/12/02 08:13:16;;;;;;;26.00;12.30;;;;;;;;;;106652;1310;22086;-73
2022/12/02 08:22:43;;;;;;;27.20;12.40;;;;;;;;;;100346;1341;545404;-80
2022/12/02 08:25:09;;;;;;;29.10;12.80;;;;;;;;;;102396;1320;22561;-77
2022/12/02 08:27:39;;;;;;;34.30;13.90;;;;;;;;;;102418;1319;24324;-75
2022/12/02 08:30:08;;;;;;;33.80;14.20;;;;;;;;;;102418;1319;25363;-75
2022/12/02 08:32:35;;;;;;;34.80;13.70;;;;;;;;;;102599;1307;24290;-74
2022/12/02 08:35:02;;;;;;;36.20;15.10;;;;;;;;;;102371;1319;22733;-81
2022/12/02 08:37:29;;;;;;;35.90;14.20;;;;;;;;;;101770;1315;1437974;-81
2022/12/02 08:39:56;;;;;;;30.00;13.00;;;;;;;;;;102793;1308;25297;-79
2022/12/02 08:42:22;;;;;;;29.20;12.50;;;;;;;;;;102739;1316;24227;-80
2022/12/02 08:44:49;;;;;;;25.10;11.30;;;;;;;;;;102473;1308;21850;-81
2022/12/02 08:47:16;;;;;;;24.90;11.70;;;;;;;;;;103266;1313;24392;-79
2022/12/02 08:49:42;;;;;;;27.80;12.20;;;;;;;;;;103215;1308;23186;-77
2022/12/02 08:52:09;;;;;;;27.80;11.90;;;;;;;;;;103343;1307;22489;-76
2022/12/02 08:54:36;;;;;;;30.00;12.80;;;;;;;;;;103212;1310;24317;-77
2022/12/02 08:57:03;;;;;;;31.50;12.10;;;;;;;;;;103419;1308;22529;-76
2022/12/02 08:59:30;;;;;;;27.50;12.20;;;;;;;;;;103426;1308;22472;-78
2022/12/02 09:01:57;;;;;;;38.80;16.60;;;;;;;;;;103229;1310;22512;-77
2022/12/02 09:04:23;;;;;;;33.10;15.90;;;;;;;;;;102943;1312;25207;-79
2022/12/02 09:06:50;;;;;;;38.40;16.60;;;;;;;;;;102939;1297;24294;-76
2022/12/02 09:09:17;;;;;;;35.60;16.60;;;;;;;;;;102893;1310;22425;-76
2022/12/02 09:11:43;;;;;;;37.20;15.10;;;;;;;;;;103229;1291;25210;-76
2022/12/02 09:14:10;;;;;;;33.10;14.50;;;;;;;;;;103224;1294;25319;-75
2022/12/02 09:16:37;;;;;;;36.00;14.60;;;;;;;;;;103394;1307;22470;-74
2022/12/02 09:19:03;;;;;;;30.50;13.90;;;;;;;;;;103402;1313;22499;-80
2022/12/02 09:21:30;;;;;;;29.90;12.20;;;;;;;;;;103214;1308;22536;-81
2022/12/02 09:23:57;;;;;;;36.20;16.40;;;;;;;;;;103157;1302;22903;-76
2022/12/02 09:26:23;;;;;;;37.70;15.90;;;;;;;;;;102953;1310;24745;-77
2022/12/02 09:28:50;;;;;;;33.40;15.30;;;;;;;;;;106695;1308;22063;-73
2022/12/02 09:31:17;;;;;;;29.10;13.80;;;;;;;;;;106703;1310;22663;-74
2022/12/02 09:33:44;;;;;;;29.60;12.20;;;;;;;;;;106713;1310;22828;-74
2022/12/02 09:36:10;;;;;;;34.90;13.80;;;;;;;;;;106706;1310;22052;-74
2022/12/02 09:38:37;;;;;;;35.20;14.90;;;;;;;;;;106775;1308;22900;-75
2022/12/02 09:41:04;;;;;;;69.10;29.90;;;;;;;;;;106767;1309;22092;-74
2022/12/02 09:43:32;;;;;;;52.10;24.60;;;;;;;;;;107066;1300;22061;-74
2022/12/02 09:45:59;;;;;;;41.60;18.80;;;;;;;;;;106717;1310;22062;-75
2022/12/02 09:48:27;;;;;;;34.10;14.50;;;;;;;;;;106734;1310;22109;-74
2022/12/02 09:50:55;;;;;;;38.90;15.30;;;;;;;;;;106721;1309;22768;-74
2022/12/02 09:53:24;;;;;;;40.40;17.60;;;;;;;;;;106903;1307;22172;-75
2022/12/02 09:55:51;;;;;;;51.80;22.00;;;;;;;;;;107050;1306;22705;-74
2022/12/02 09:58:20;;;;;;;38.70;15.60;;;;;;;;;;107214;1285;22021;-75
2022/12/02 10:00:49;;;;;;;27.80;12.60;;;;;;;;;;107030;1307;22103;-74
2022/12/02 10:03:18;;;;;;;49.30;18.60;;;;;;;;;;106829;1307;22062;-75
2022/12/02 10:05:45;;;;;;;44.60;18.50;;;;;;;;;;106889;1306;22356;-75
2022/12/02 10:08:16;;;;;;;34.70;15.50;;;;;;;;;;106912;1306;22124;-74
2022/12/02 10:10:43;;;;;;;38.90;15.30;;;;;;;;;;106776;1307;22726;-75
2022/12/02 10:13:14;;;;;;;52.20;23.00;;;;;;;;;;106898;1306;21954;-74
2022/12/02 10:15:41;;;;;;;37.60;15.00;;;;;;;;;;106840;1306;22098;-75
2022/12/02 10:18:16;;;;;;;32.40;14.40;;;;;;;;;;106928;1306;22058;-75
2022/12/02 10:20:46;;;;;;;51.30;23.70;;;;;;;;;;106838;1307;22025;-75
2022/12/02 10:23:13;;;;;;;34.00;15.80;;;;;;;;;;106864;1307;22182;-75
2022/12/02 10:25:42;;;;;;;26.10;12.20;;;;;;;;;;106744;1307;22065;-75
2022/12/02 10:28:28;;;;;;;31.70;14.30;;;;;;;;;;106857;1307;22663;-75
2022/12/02 10:31:03;;;;;;;31.50;14.40;;;;;;;;;;106901;1307;22520;-75
2022/12/02 10:33:32;;;;;;;38.80;17.90;;;;;;;;;;106761;1307;22043;-75
2022/12/02 10:35:59;;;;;;;37.30;16.90;;;;;;;;;;106892;1306;22061;-76
2022/12/02 10:38:26;;;;;;;40.00;17.70;;;;;;;;;;106882;1306;22705;-75
2022/12/02 10:40:52;;;;;;;42.50;18.60;;;;;;;;;;106945;1300;22078;-75
2022/12/02 10:43:19;;;;;;;39.50;16.80;;;;;;;;;;106885;1306;22091;-75
2022/12/02 10:45:56;;;;;;;37.80;15.90;;;;;;;;;;106687;1306;22124;-76
2022/12/02 10:48:23;;;;;;;32.50;13.30;;;;;;;;;;106738;1307;23266;-76
2022/12/02 10:50:49;;;;;;;84.00;41.10;;;;;;;;;;106845;1299;22729;-75
2022/12/02 10:53:17;;;;;;;42.10;18.50;;;;;;;;;;106779;1307;22709;-74
2022/12/02 10:55:45;;;;;;;31.50;14.30;;;;;;;;;;107144;1299;22097;-74
2022/12/02 10:58:13;;;;;;;37.70;15.20;;;;;;;;;;107106;1291;22073;-74
2022/12/02 11:00:40;;;;;;;34.10;14.30;;;;;;;;;;106863;1307;22069;-76
2022/12/02 11:03:07;;;;;;;37.00;15.20;;;;;;;;;;106895;1300;22045;-76
2022/12/02 11:05:37;;;;;;;37.00;15.10;;;;;;;;;;106814;1307;22070;-75
2022/12/02 11:08:03;;;;;;;36.30;15.40;;;;;;;;;;106877;1297;22077;-76
2022/12/02 11:10:37;;;;;;;36.10;14.90;;;;;;;;;;106877;1306;21936;-74
2022/12/02 11:13:16;;;;;;;33.70;15.40;;;;;;;;;;106754;1308;22098;-75
2022/12/02 11:15:48;;;;;;;36.40;14.40;;;;;;;;;;106850;1306;22091;-74
2022/12/02 11:18:24;;;;;;;29.40;12.70;;;;;;;;;;106922;1299;22058;-74
2022/12/02 11:20:55;;;;;;;26.70;11.40;;;;;;;;;;106902;1306;22162;-74
2022/12/02 11:23:28;;;;;;;34.70;13.90;;;;;;;;;;106759;1307;22074;-74
2022/12/02 11:26:04;;;;;;;31.60;14.00;;;;;;;;;;106854;1307;22068;-75
2022/12/02 11:28:34;;;;;;;40.10;16.50;;;;;;;;;;106851;1308;21917;-75
2022/12/02 11:31:10;;;;;;;46.00;18.20;;;;;;;;;;106870;1309;22147;-74
2022/12/02 11:33:42;;;;;;;32.80;13.50;;;;;;;;;;106865;1309;22777;-73
2022/12/02 11:36:13;;;;;;;34.30;14.10;;;;;;;;;;106847;1306;22544;-74
2022/12/02 11:38:57;;;;;;;30.50;13.50;;;;;;;;;;107124;1300;22057;-74
2022/12/02 11:41:28;;;;;;;40.20;15.20;;;;;;;;;;107136;1300;22153;-75
2022/12/02 11:43:54;;;;;;;32.80;12.40;;;;;;;;;;106766;1307;22806;-75
2022/12/02 11:46:22;;;;;;;33.50;13.20;;;;;;;;;;106872;1306;22793;-75
2022/12/02 11:48:52;;;;;;;49.40;17.50;;;;;;;;;;106647;1309;22046;-75
2022/12/02 11:51:42;;;;;;;36.20;14.10;;;;;;;;;;106835;1309;22884;-74
2022/12/02 11:54:12;;;;;;;35.50;15.10;;;;;;;;;;107013;1299;22029;-75
2022/12/02 11:56:39;;;;;;;32.50;13.80;;;;;;;;;;106871;1306;22003;-75
2022/12/02 11:59:35;;;;;;;38.90;16.20;;;;;;;;;;107113;1300;22017;-74
2022/12/02 12:02:05;;;;;;;129.60;51.10;;;;;;;;;;106848;1306;21966;-74
2022/12/02 12:04:32;;;;;;;90.80;27.00;;;;;;;;;;106907;1306;22092;-75
2022/12/02 12:06:59;;;;;;;51.70;17.70;;;;;;;;;;107098;1283;22048;-74
2022/12/02 12:09:26;;;;;;;43.20;16.90;;;;;;;;;;106818;1307;22143;-75
2022/12/02 12:12:13;;;;;;;46.70;16.80;;;;;;;;;;106739;1309;22067;-74
2022/12/02 12:14:56;;;;;;;35.10;14.30;;;;;;;;;;106871;1307;22121;-75
2022/12/02 12:17:32;;;;;;;33.00;13.80;;;;;;;;;;106788;1307;22073;-76
2022/12/02 12:19:59;;;;;;;50.50;18.20;;;;;;;;;;106768;1306;22050;-75
2022/12/02 12:22:27;;;;;;;37.60;15.60;;;;;;;;;;106880;1299;21966;-75
2022/12/02 12:24:54;;;;;;;36.10;14.60;;;;;;;;;;106723;1308;22051;-74
2022/12/02 12:27:36;;;;;;;34.60;14.30;;;;;;;;;;106782;1307;22073;-75
2022/12/02 12:30:04;;;;;;;36.10;14.50;;;;;;;;;;106713;1309;22806;-75
2022/12/02 12:32:31;;;;;;;35.00;14.30;;;;;;;;;;106751;1309;22068;-75
2022/12/02 12:34:58;;;;;;;41.20;16.60;;;;;;;;;;107098;1301;22036;-75
2022/12/02 12:37:24;;;;;;;37.20;16.60;;;;;;;;;;107080;1286;23236;-75
2022/12/02 12:39:51;;;;;;;41.40;17.60;;;;;;;;;;107118;1291;22076;-75
2022/12/02 12:42:18;;;;;;;34.60;15.10;;;;;;;;;;107062;1277;22791;-74
2022/12/02 12:44:44;;;;;;;28.10;13.30;;;;;;;;;;106870;1307;22106;-75
2022/12/02 12:47:11;;;;;;;30.70;12.70;;;;;;;;;;106691;1304;22135;-75
2022/12/02 12:49:38;;;;;;;46.70;19.90;;;;;;;;;;106663;1308;22044;-74
2022/12/02 12:52:04;;;;;;;48.80;20.70;;;;;;;;;;106740;1309;22111;-75
2022/12/02 12:54:31;;;;;;;34.70;14.20;;;;;;;;;;106699;1308;22045;-75
2022/12/02 12:56:58;;;;;;;34.30;14.90;;;;;;;;;;106960;1299;22087;-74
2022/12/02 12:59:24;;;;;;;35.30;14.70;;;;;;;;;;106744;1309;22683;-74
2022/12/02 13:01:51;;;;;;;33.20;13.70;;;;;;;;;;106875;1307;22071;-75
2022/12/02 13:04:18;;;;;;;33.30;13.90;;;;;;;;;;106756;1307;22692;-74
2022/12/02 13:06:45;;;;;;;31.10;13.30;;;;;;;;;;107147;1299;22032;-75
2022/12/02 13:09:12;;;;;;;30.50;13.30;;;;;;;;;;106745;1309;21951;-74
2022/12/02 13:11:39;;;;;;;28.70;12.70;;;;;;;;;;106691;1309;22081;-74
2022/12/02 13:14:07;;;;;;;28.50;12.50;;;;;;;;;;106683;1304;22076;-75
2022/12/02 13:16:34;;;;;;;29.50;13.10;;;;;;;;;;106942;1302;22092;-75
2022/12/02 13:19:01;;;;;;;30.90;13.20;;;;;;;;;;106709;1309;21735;-75
2022/12/02 13:21:28;;;;;;;30.30;13.40;;;;;;;;;;106847;1295;22731;-75
2022/12/02 13:23:54;;;;;;;28.50;12.80;;;;;;;;;;106853;1310;22081;-75
2022/12/02 13:26:21;;;;;;;31.40;13.10;;;;;;;;;;106857;1309;22062;-74
2022/12/02 13:28:51;;;;;;;33.50;14.20;;;;;;;;;;106740;1308;22057;-75
2022/12/02 13:31:18;;;;;;;32.90;13.40;;;;;;;;;;106704;1309;22080;-75
2022/12/02 13:33:45;;;;;;;31.50;12.90;;;;;;;;;;106688;1309;22795;-75
2022/12/02 13:36:11;;;;;;;28.60;13.10;;;;;;;;;;106734;1305;22039;-75
2022/12/02 13:38:39;;;;;;;27.90;12.40;;;;;;;;;;107026;1285;22613;-75
2022/12/02 13:41:06;;;;;;;30.30;13.40;;;;;;;;;;106868;1310;22134;-76
2022/12/02 13:43:32;;;;;;;31.30;13.40;;;;;;;;;;107089;1294;22056;-75
2022/12/02 13:45:59;;;;;;;26.70;11.90;;;;;;;;;;106840;1308;22108;-75
2022/12/02 13:48:26;;;;;;;28.40;12.50;;;;;;;;;;106774;1308;22174;-76
2022/12/02 13:50:52;;;;;;;54.40;24.50;;;;;;;;;;106712;1308;22790;-75
2022/12/02 13:53:19;;;;;;;30.80;13.60;;;;;;;;;;106928;1288;22504;-75
2022/12/02 13:55:46;;;;;;;33.70;14.70;;;;;;;;;;106728;1309;22740;-75
2022/12/02 13:58:13;;;;;;;29.00;12.80;;;;;;;;;;106724;1302;22132;-75
2022/12/02 14:00:40;;;;;;;28.90;12.20;;;;;;;;;;107078;1294;22908;-76
2022/12/02 14:03:08;;;;;;;32.90;14.10;;;;;;;;;;106940;1302;22070;-75
2022/12/02 14:05:35;;;;;;;43.70;16.70;;;;;;;;;;106735;1309;22092;-75
2022/12/02 14:08:02;;;;;;;35.50;14.10;;;;;;;;;;106723;1310;22689;-76
2022/12/02 14:10:29;;;;;;;53.00;18.90;;;;;;;;;;106726;1309;22090;-75
2022/12/02 14:12:56;;;;;;;42.90;16.60;;;;;;;;;;106720;1309;22741;-74
2022/12/02 14:15:24;;;;;;;33.90;15.40;;;;;;;;;;106652;1309;22160;-75
2022/12/02 14:17:50;;;;;;;33.70;14.20;;;;;;;;;;106658;1309;22064;-75
2022/12/02 14:20:18;;;;;;;40.30;15.70;;;;;;;;;;106691;1309;22032;-76
2022/12/02 14:22:46;;;;;;;39.20;16.20;;;;;;;;;;106928;1302;21966;-76